sensor_id;sensor_type;location;lat;lon;timestamp;pressure;altitude;pressure_sealevel;temperature;humidity
8059;BME280;4072;42.668;23.396;2023-08-24T00:01:47;95225.19;;;24.36;100.00
8059;BME280;4072;42.668;23.396;2023-08-24T00:04:15;95179.06;;;24.05;100.00
8059;BME280;4072;42.668;23.396;2023-08-24T00:06:43;95216.66;;;24.21;100.00
8059;BME280;4072;42.668;23.396;2023-08-24T00:09:11;95220.81;;;24.14;100.00
8059;BME280;4072;42.668;23.396;2023-08-24T00:11:41;95226.69;;;24.11;100.00
8059;BME280;4072;42.668;23.396;2023-08-24T00:14:09;95215.63;;;24.11;100.00
8059;BME280;4072;42.668;23.396;2023-08-24T00:16:37;95177.41;;;23.83;100.00
8059;BME280;4072;42.668;23.396;2023-08-24T00:19:06;95222.63;;;23.99;100.00
8059;BME280;4072;42.668;23.396;2023-08-24T00:21:35;95218.56;;;24.00;100.00
8059;BME280;4072;42.668;23.396;2023-08-24T00:24:04;95209.66;;;24.07;100.00
8059;BME280;4072;42.668;23.396;2023-08-24T00:26:33;95213.16;;;24.07;100.00
8059;BME280;4072;42.668;23.396;2023-08-24T00:29:03;95210.69;;;23.91;100.00
8059;BME280;4072;42.668;23.396;2023-08-24T00:31:31;95209.22;;;23.90;100.00
8059;BME280;4072;42.668;23.396;2023-08-24T00:33:59;95210.69;;;23.91;100.00
8059;BME280;4072;42.668;23.396;2023-08-24T00:36:29;95185.09;;;23.77;100.00
8059;BME280;4072;42.668;23.396;2023-08-24T00:38:58;95209.38;;;23.79;100.00
8059;BME280;4072;42.668;23.396;2023-08-24T00:41:26;95210.00;;;23.72;100.00
8059;BME280;4072;42.668;23.396;2023-08-24T00:43:54;95219.59;;;23.71;100.00
8059;BME280;4072;42.668;23.396;2023-08-24T00:46:25;95213.56;;;23.85;100.00
8059;BME280;4072;42.668;23.396;2023-08-24T00:48:55;95218.66;;;23.81;100.00
8059;BME280;4072;42.668;23.396;2023-08-24T00:51:24;95220.44;;;23.79;100.00
8059;BME280;4072;42.668;23.396;2023-08-24T00:53:53;95204.25;;;23.57;100.00
8059;BME280;4072;42.668;23.396;2023-08-24T00:56:21;95226.63;;;23.85;100.00
8059;BME280;4072;42.668;23.396;2023-08-24T00:58:52;95215.13;;;23.81;100.00
8059;BME280;4072;42.668;23.396;2023-08-24T01:01:23;95135.59;;;23.22;100.00
8059;BME280;4072;42.668;23.396;2023-08-24T01:03:52;95177.03;;;23.35;100.00
8059;BME280;4072;42.668;23.396;2023-08-24T01:06:21;95217.59;;;23.40;100.00
8059;BME280;4072;42.668;23.396;2023-08-24T01:08:51;95211.22;;;23.13;100.00
8059;BME280;4072;42.668;23.396;2023-08-24T01:11:30;95214.91;;;23.03;100.00
8059;BME280;4072;42.668;23.396;2023-08-24T01:14:06;95217.34;;;23.06;100.00
8059;BME280;4072;42.668;23.396;2023-08-24T01:16:38;95225.94;;;23.03;100.00
8059;BME280;4072;42.668;23.396;2023-08-24T01:19:16;95225.06;;;22.95;100.00
8059;BME280;4072;42.668;23.396;2023-08-24T01:21:48;95224.22;;;22.81;100.00
8059;BME280;4072;42.668;23.396;2023-08-24T01:24:21;95213.44;;;22.40;100.00
8059;BME280;4072;42.668;23.396;2023-08-24T01:26:57;95131.44;;;21.61;100.00
8059;BME280;4072;42.668;23.396;2023-08-24T01:29:26;95217.63;;;22.04;100.00
8059;BME280;4072;42.668;23.396;2023-08-24T01:31:55;95220.69;;;21.77;100.00
8059;BME280;4072;42.668;23.396;2023-08-24T01:34:23;95233.47;;;21.74;100.00
8059;BME280;4072;42.668;23.396;2023-08-24T01:36:52;95224.81;;;21.59;100.00
8059;BME280;4072;42.668;23.396;2023-08-24T01:39:27;95159.72;;;21.08;100.00
8059;BME280;4072;42.668;23.396;2023-08-24T01:42:01;95226.22;;;21.42;100.00
8059;BME280;4072;42.668;23.396;2023-08-24T01:44:34;95225.84;;;21.27;100.00
8059;BME280;4072;42.668;23.396;2023-08-24T01:47:04;95224.84;;;21.30;100.00
8059;BME280;4072;42.668;23.396;2023-08-24T01:49:34;95210.94;;;21.17;100.00
8059;BME280;4072;42.668;23.396;2023-08-24T01:52:02;95219.03;;;21.33;100.00
8059;BME280;4072;42.668;23.396;2023-08-24T01:54:31;95210.97;;;21.41;100.00
8059;BME280;4072;42.668;23.396;2023-08-24T01:57:04;95215.63;;;21.51;100.00
8059;BME280;4072;42.668;23.396;2023-08-24T01:59:33;95216.47;;;21.70;100.00
8059;BME280;4072;42.668;23.396;2023-08-24T02:02:01;95228.94;;;21.77;100.00
8059;BME280;4072;42.668;23.396;2023-08-24T02:04:29;95210.69;;;21.74;100.00
8059;BME280;4072;42.668;23.396;2023-08-24T02:06:58;95228.25;;;21.95;100.00
8059;BME280;4072;42.668;23.396;2023-08-24T02:09:26;95224.63;;;22.05;100.00
8059;BME280;4072;42.668;23.396;2023-08-24T02:11:54;95235.88;;;22.07;100.00
8059;BME280;4072;42.668;23.396;2023-08-24T02:14:24;95224.75;;;22.18;100.00
8059;BME280;4072;42.668;23.396;2023-08-24T02:16:52;95228.81;;;22.36;100.00
8059;BME280;4072;42.668;23.396;2023-08-24T02:19:20;95217.88;;;22.25;100.00
8059;BME280;4072;42.668;23.396;2023-08-24T02:21:49;95226.72;;;22.23;100.00
8059;BME280;4072;42.668;23.396;2023-08-24T02:24:17;95230.25;;;22.18;100.00
8059;BME280;4072;42.668;23.396;2023-08-24T02:26:45;95226.41;;;22.27;100.00
8059;BME280;4072;42.668;23.396;2023-08-24T02:29:14;95225.66;;;22.26;100.00
8059;BME280;4072;42.668;23.396;2023-08-24T02:31:46;95191.28;;;22.09;100.00
8059;BME280;4072;42.668;23.396;2023-08-24T02:34:14;95228.88;;;22.30;100.00
8059;BME280;4072;42.668;23.396;2023-08-24T02:36:42;95218.44;;;22.23;100.00
8059;BME280;4072;42.668;23.396;2023-08-24T02:39:11;95228.41;;;22.26;100.00
8059;BME280;4072;42.668;23.396;2023-08-24T02:41:39;95222.31;;;22.33;100.00
8059;BME280;4072;42.668;23.396;2023-08-24T02:44:07;95221.50;;;22.38;100.00
8059;BME280;4072;42.668;23.396;2023-08-24T02:46:36;95207.03;;;22.32;100.00
8059;BME280;4072;42.668;23.396;2023-08-24T02:49:05;95217.47;;;22.39;100.00
8059;BME280;4072;42.668;23.396;2023-08-24T02:51:34;95217.16;;;22.48;100.00
8059;BME280;4072;42.668;23.396;2023-08-24T02:54:03;95194.84;;;22.46;100.00
8059;BME280;4072;42.668;23.396;2023-08-24T02:56:33;95210.66;;;22.64;100.00
8059;BME280;4072;42.668;23.396;2023-08-24T02:59:02;95147.31;;;22.22;100.00
8059;BME280;4072;42.668;23.396;2023-08-24T03:01:30;95162.72;;;22.30;100.00
8059;BME280;4072;42.668;23.396;2023-08-24T03:03:58;95192.56;;;22.50;100.00
8059;BME280;4072;42.668;23.396;2023-08-24T03:06:28;95213.56;;;22.53;100.00
8059;BME280;4072;42.668;23.396;2023-08-24T03:08:56;95207.50;;;22.36;100.00
8059;BME280;4072;42.668;23.396;2023-08-24T03:11:24;95229.41;;;22.47;100.00
8059;BME280;4072;42.668;23.396;2023-08-24T03:13:52;95229.41;;;22.47;100.00
8059;BME280;4072;42.668;23.396;2023-08-24T03:16:21;95232.88;;;22.53;100.00
8059;BME280;4072;42.668;23.396;2023-08-24T03:18:50;95223.56;;;22.32;100.00
8059;BME280;4072;42.668;23.396;2023-08-24T03:21:18;95217.81;;;22.12;100.00
8059;BME280;4072;42.668;23.396;2023-08-24T03:23:47;95221.63;;;22.27;100.00
8059;BME280;4072;42.668;23.396;2023-08-24T03:26:16;95231.63;;;22.30;100.00
8059;BME280;4072;42.668;23.396;2023-08-24T03:28:47;95237.25;;;22.19;100.00
8059;BME280;4072;42.668;23.396;2023-08-24T03:31:16;95225.91;;;22.04;100.00
8059;BME280;4072;42.668;23.396;2023-08-24T03:33:45;95236.00;;;21.96;100.00
8059;BME280;4072;42.668;23.396;2023-08-24T03:36:14;95251.97;;;22.03;100.00
8059;BME280;4072;42.668;23.396;2023-08-24T03:38:43;95257.06;;;22.18;100.00
8059;BME280;4072;42.668;23.396;2023-08-24T03:41:13;95228.72;;;21.99;100.00
8059;BME280;4072;42.668;23.396;2023-08-24T03:43:41;95252.53;;;21.96;100.00
8059;BME280;4072;42.668;23.396;2023-08-24T03:46:10;95219.59;;;21.56;100.00
8059;BME280;4072;42.668;23.396;2023-08-24T03:48:38;95259.75;;;21.75;100.00
8059;BME280;4072;42.668;23.396;2023-08-24T03:51:06;95273.28;;;21.73;100.00
8059;BME280;4072;42.668;23.396;2023-08-24T03:53:34;95259.69;;;21.51;100.00
8059;BME280;4072;42.668;23.396;2023-08-24T03:56:03;95203.34;;;20.93;100.00
8059;BME280;4072;42.668;23.396;2023-08-24T03:58:32;95271.25;;;21.09;100.00
8059;BME280;4072;42.668;23.396;2023-08-24T04:01:03;95265.03;;;21.03;100.00
8059;BME280;4072;42.668;23.396;2023-08-24T04:03:33;95275.78;;;21.01;100.00
8059;BME280;4072;42.668;23.396;2023-08-24T04:06:04;95270.22;;;21.12;100.00
8059;BME280;4072;42.668;23.396;2023-08-24T04:08:33;95280.69;;;21.19;100.00
8059;BME280;4072;42.668;23.396;2023-08-24T04:11:01;95162.06;;;20.58;100.00
8059;BME280;4072;42.668;23.396;2023-08-24T04:13:31;95270.53;;;21.38;100.00
8059;BME280;4072;42.668;23.396;2023-08-24T04:16:05;95199.59;;;20.91;100.00
8059;BME280;4072;42.668;23.396;2023-08-24T04:18:33;95264.00;;;21.41;100.00
8059;BME280;4072;42.668;23.396;2023-08-24T04:21:01;95257.25;;;21.42;100.00
8059;BME280;4072;42.668;23.396;2023-08-24T04:23:30;95255.53;;;21.39;100.00
8059;BME280;4072;42.668;23.396;2023-08-24T04:25:58;95263.91;;;21.52;100.00
8059;BME280;4072;42.668;23.396;2023-08-24T04:28:26;95262.13;;;21.60;100.00
8059;BME280;4072;42.668;23.396;2023-08-24T04:30:56;95270.38;;;21.60;100.00
8059;BME280;4072;42.668;23.396;2023-08-24T04:33:26;95271.63;;;21.59;100.00
8059;BME280;4072;42.668;23.396;2023-08-24T04:35:54;95223.94;;;21.46;100.00
8059;BME280;4072;42.668;23.396;2023-08-24T04:38:23;95276.16;;;21.86;100.00
8059;BME280;4072;42.668;23.396;2023-08-24T04:40:53;95276.28;;;21.75;100.00
8059;BME280;4072;42.668;23.396;2023-08-24T04:43:23;95282.81;;;21.72;100.00
8059;BME280;4072;42.668;23.396;2023-08-24T04:45:53;95145.41;;;20.80;100.00
8059;BME280;4072;42.668;23.396;2023-08-24T04:48:22;95251.25;;;21.44;100.00
8059;BME280;4072;42.668;23.396;2023-08-24T04:50:52;95272.38;;;21.60;100.00
8059;BME280;4072;42.668;23.396;2023-08-24T04:53:23;95263.09;;;21.63;100.00
8059;BME280;4072;42.668;23.396;2023-08-24T04:55:51;95267.25;;;21.75;100.00
8059;BME280;4072;42.668;23.396;2023-08-24T04:58:21;95272.34;;;21.95;100.00
8059;BME280;4072;42.668;23.396;2023-08-24T05:00:50;95278.53;;;22.01;100.00
8059;BME280;4072;42.668;23.396;2023-08-24T05:03:18;95276.94;;;22.11;100.00
8059;BME280;4072;42.668;23.396;2023-08-24T05:05:48;95276.75;;;22.27;100.00
8059;BME280;4072;42.668;23.396;2023-08-24T05:08:20;95283.81;;;22.23;100.00
8059;BME280;4072;42.668;23.396;2023-08-24T05:10:48;95290.75;;;22.29;100.00
8059;BME280;4072;42.668;23.396;2023-08-24T05:13:16;95288.56;;;22.46;100.00
8059;BME280;4072;42.668;23.396;2023-08-24T05:15:44;95283.84;;;22.65;100.00
8059;BME280;4072;42.668;23.396;2023-08-24T05:18:12;95280.16;;;22.81;100.00
8059;BME280;4072;42.668;23.396;2023-08-24T05:20:40;95292.38;;;23.23;100.00
8059;BME280;4072;42.668;23.396;2023-08-24T05:23:08;95285.53;;;23.30;100.00
8059;BME280;4072;42.668;23.396;2023-08-24T05:25:38;95289.66;;;23.55;100.00
8059;BME280;4072;42.668;23.396;2023-08-24T05:28:10;95294.56;;;23.62;100.00
8059;BME280;4072;42.668;23.396;2023-08-24T05:30:38;95300.72;;;23.55;100.00
8059;BME280;4072;42.668;23.396;2023-08-24T05:33:06;95299.91;;;23.73;100.00
8059;BME280;4072;42.668;23.396;2023-08-24T05:35:35;95295.69;;;23.85;100.00
8059;BME280;4072;42.668;23.396;2023-08-24T05:38:04;95289.31;;;23.77;100.00
8059;BME280;4072;42.668;23.396;2023-08-24T05:40:33;95255.19;;;23.43;100.00
8059;BME280;4072;42.668;23.396;2023-08-24T05:43:05;95293.38;;;23.57;100.00
8059;BME280;4072;42.668;23.396;2023-08-24T05:45:33;95301.25;;;23.35;100.00
8059;BME280;4072;42.668;23.396;2023-08-24T05:48:02;95275.97;;;22.93;100.00
8059;BME280;4072;42.668;23.396;2023-08-24T05:50:30;95304.03;;;22.98;100.00
8059;BME280;4072;42.668;23.396;2023-08-24T05:52:58;95301.84;;;22.91;100.00
8059;BME280;4072;42.668;23.396;2023-08-24T05:55:26;95306.09;;;22.92;100.00
8059;BME280;4072;42.668;23.396;2023-08-24T05:57:54;95270.53;;;22.69;100.00
8059;BME280;4072;42.668;23.396;2023-08-24T06:00:24;95311.31;;;22.95;100.00
8059;BME280;4072;42.668;23.396;2023-08-24T06:02:53;95235.97;;;22.44;100.00
8059;BME280;4072;42.668;23.396;2023-08-24T06:05:21;95316.53;;;22.99;100.00
8059;BME280;4072;42.668;23.396;2023-08-24T06:07:50;95314.91;;;23.09;100.00
8059;BME280;4072;42.668;23.396;2023-08-24T06:10:18;95316.41;;;23.28;100.00
8059;BME280;4072;42.668;23.396;2023-08-24T06:12:48;95314.91;;;23.46;100.00
8059;BME280;4072;42.668;23.396;2023-08-24T06:15:16;95314.72;;;23.57;100.00
8059;BME280;4072;42.668;23.396;2023-08-24T06:17:47;95329.44;;;23.96;100.00
8059;BME280;4072;42.668;23.396;2023-08-24T06:20:16;95312.06;;;24.27;100.00
8059;BME280;4072;42.668;23.396;2023-08-24T06:22:44;95290.69;;;24.41;100.00
8059;BME280;4072;42.668;23.396;2023-08-24T06:25:12;95311.13;;;24.77;100.00
8059;BME280;4072;42.668;23.396;2023-08-24T06:27:41;95315.47;;;24.72;100.00
8059;BME280;4072;42.668;23.396;2023-08-24T06:30:10;95315.78;;;25.08;100.00
8059;BME280;4072;42.668;23.396;2023-08-24T06:32:39;95321.34;;;25.28;100.00
8059;BME280;4072;42.668;23.396;2023-08-24T06:35:09;95295.41;;;25.52;100.00
8059;BME280;4072;42.668;23.396;2023-08-24T06:37:40;95261.34;;;25.44;100.00
8059;BME280;4072;42.668;23.396;2023-08-24T06:40:09;95322.63;;;25.74;100.00
8059;BME280;4072;42.668;23.396;2023-08-24T06:42:38;95295.97;;;25.71;100.00
8059;BME280;4072;42.668;23.396;2023-08-24T06:45:08;95306.53;;;25.93;100.00
8059;BME280;4072;42.668;23.396;2023-08-24T06:47:37;95325.78;;;26.40;100.00
8059;BME280;4072;42.668;23.396;2023-08-24T06:50:09;95310.88;;;26.78;100.00
8059;BME280;4072;42.668;23.396;2023-08-24T06:52:37;95305.88;;;26.77;100.00
8059;BME280;4072;42.668;23.396;2023-08-24T06:55:08;95269.00;;;26.69;100.00
8059;BME280;4072;42.668;23.396;2023-08-24T06:57:36;95315.59;;;26.98;100.00
8059;BME280;4072;42.668;23.396;2023-08-24T07:00:06;95310.22;;;27.00;100.00
8059;BME280;4072;42.668;23.396;2023-08-24T07:02:36;95307.84;;;26.69;100.00
8059;BME280;4072;42.668;23.396;2023-08-24T07:05:05;95301.44;;;26.25;100.00
8059;BME280;4072;42.668;23.396;2023-08-24T07:07:38;95306.81;;;26.23;100.00
8059;BME280;4072;42.668;23.396;2023-08-24T07:10:08;95311.16;;;26.39;100.00
8059;BME280;4072;42.668;23.396;2023-08-24T07:12:36;95281.63;;;26.21;100.00
8059;BME280;4072;42.668;23.396;2023-08-24T07:15:06;95297.34;;;26.47;100.00
8059;BME280;4072;42.668;23.396;2023-08-24T07:17:35;95262.47;;;26.31;100.00
8059;BME280;4072;42.668;23.396;2023-08-24T07:20:04;95292.84;;;26.64;100.00
8059;BME280;4072;42.668;23.396;2023-08-24T07:22:34;95224.19;;;26.29;100.00
8059;BME280;4072;42.668;23.396;2023-08-24T07:25:06;95290.47;;;27.11;100.00
8059;BME280;4072;42.668;23.396;2023-08-24T07:27:35;95301.13;;;27.35;99.62
8059;BME280;4072;42.668;23.396;2023-08-24T07:30:04;95297.50;;;27.63;98.22
8059;BME280;4072;42.668;23.396;2023-08-24T07:32:54;95294.59;;;27.83;96.82
8059;BME280;4072;42.668;23.396;2023-08-24T07:35:23;95299.03;;;28.32;91.65
8059;BME280;4072;42.668;23.396;2023-08-24T07:37:52;95283.47;;;28.29;91.50
8059;BME280;4072;42.668;23.396;2023-08-24T07:40:22;95291.94;;;28.83;86.66
8059;BME280;4072;42.668;23.396;2023-08-24T07:42:54;95300.91;;;28.52;88.46
8059;BME280;4072;42.668;23.396;2023-08-24T07:45:23;95281.56;;;28.69;88.12
8059;BME280;4072;42.668;23.396;2023-08-24T07:47:52;95281.34;;;28.82;85.42
8059;BME280;4072;42.668;23.396;2023-08-24T07:50:21;95296.78;;;28.68;85.60
8059;BME280;4072;42.668;23.396;2023-08-24T07:52:51;95265.56;;;28.77;83.36
8059;BME280;4072;42.668;23.396;2023-08-24T07:55:25;95295.56;;;29.01;83.84
8059;BME280;4072;42.668;23.396;2023-08-24T07:57:53;95289.81;;;28.99;82.81
8059;BME280;4072;42.668;23.396;2023-08-24T08:00:21;95287.78;;;29.07;81.73
8059;BME280;4072;42.668;23.396;2023-08-24T08:02:53;95286.66;;;29.10;80.73
8059;BME280;4072;42.668;23.396;2023-08-24T08:05:21;95245.19;;;28.67;80.65
8059;BME280;4072;42.668;23.396;2023-08-24T08:07:50;95294.09;;;29.00;80.89
8059;BME280;4072;42.668;23.396;2023-08-24T08:10:19;95289.16;;;29.30;78.71
8059;BME280;4072;42.668;23.396;2023-08-24T08:12:50;95299.59;;;29.62;76.68
8059;BME280;4072;42.668;23.396;2023-08-24T08:15:18;95288.06;;;29.90;74.52
8059;BME280;4072;42.668;23.396;2023-08-24T08:17:47;95296.50;;;30.07;72.63
8059;BME280;4072;42.668;23.396;2023-08-24T08:20:18;95283.28;;;29.83;73.80
8059;BME280;4072;42.668;23.396;2023-08-24T08:22:46;95290.94;;;30.07;72.24
8059;BME280;4072;42.668;23.396;2023-08-24T08:25:15;95292.69;;;30.61;69.57
8059;BME280;4072;42.668;23.396;2023-08-24T08:27:44;95281.38;;;31.10;65.11
8059;BME280;4072;42.668;23.396;2023-08-24T08:30:15;95283.50;;;31.36;61.55
8059;BME280;4072;42.668;23.396;2023-08-24T08:32:43;95275.63;;;31.25;57.47
8059;BME280;4072;42.668;23.396;2023-08-24T08:35:12;95270.44;;;31.22;56.12
8059;BME280;4072;42.668;23.396;2023-08-24T08:37:40;95273.16;;;31.12;57.49
8059;BME280;4072;42.668;23.396;2023-08-24T08:40:10;95274.69;;;31.23;58.31
8059;BME280;4072;42.668;23.396;2023-08-24T08:42:41;95246.56;;;30.94;58.09
8059;BME280;4072;42.668;23.396;2023-08-24T08:45:10;95242.13;;;30.91;57.44
8059;BME280;4072;42.668;23.396;2023-08-24T08:47:43;95268.78;;;31.19;57.92
8059;BME280;4072;42.668;23.396;2023-08-24T08:50:12;95264.03;;;31.29;56.38
8059;BME280;4072;42.668;23.396;2023-08-24T08:52:40;95261.41;;;31.31;56.38
8059;BME280;4072;42.668;23.396;2023-08-24T08:55:08;95254.41;;;31.22;55.90
8059;BME280;4072;42.668;23.396;2023-08-24T08:57:42;95256.72;;;31.16;56.70
8059;BME280;4072;42.668;23.396;2023-08-24T09:00:11;95245.69;;;31.18;57.05
8059;BME280;4072;42.668;23.396;2023-08-24T09:02:44;95246.50;;;31.28;55.51
8059;BME280;4072;42.668;23.396;2023-08-24T09:05:14;95240.06;;;31.35;56.08
8059;BME280;4072;42.668;23.396;2023-08-24T09:07:44;95235.00;;;31.51;54.54
8059;BME280;4072;42.668;23.396;2023-08-24T09:10:13;95238.38;;;31.49;54.64
8059;BME280;4072;42.668;23.396;2023-08-24T09:12:41;95233.28;;;31.55;54.28
8059;BME280;4072;42.668;23.396;2023-08-24T09:15:10;95230.00;;;31.49;53.98
8059;BME280;4072;42.668;23.396;2023-08-24T09:17:43;95229.75;;;31.28;54.58
8059;BME280;4072;42.668;23.396;2023-08-24T09:20:13;95220.88;;;31.22;55.50
8059;BME280;4072;42.668;23.396;2023-08-24T09:22:42;95168.66;;;30.98;54.94
8059;BME280;4072;42.668;23.396;2023-08-24T09:25:13;95214.81;;;31.43;54.79
8059;BME280;4072;42.668;23.396;2023-08-24T09:27:41;95202.50;;;31.55;53.95
8059;BME280;4072;42.668;23.396;2023-08-24T09:30:10;95210.53;;;31.68;53.27
8059;BME280;4072;42.668;23.396;2023-08-24T09:32:40;95206.41;;;31.69;53.25
8059;BME280;4072;42.668;23.396;2023-08-24T09:35:11;95200.50;;;32.11;51.65
8059;BME280;4072;42.668;23.396;2023-08-24T09:37:39;95203.41;;;32.58;49.53
8059;BME280;4072;42.668;23.396;2023-08-24T09:40:12;95192.50;;;32.81;49.14
8059;BME280;4072;42.668;23.396;2023-08-24T09:42:41;95191.75;;;32.52;49.56
8059;BME280;4072;42.668;23.396;2023-08-24T09:45:12;95193.81;;;32.61;48.89
8059;BME280;4072;42.668;23.396;2023-08-24T09:47:45;95190.72;;;32.86;48.63
8059;BME280;4072;42.668;23.396;2023-08-24T09:50:16;95190.75;;;32.95;47.35
8059;BME280;4072;42.668;23.396;2023-08-24T09:52:46;95188.97;;;32.71;47.79
8059;BME280;4072;42.668;23.396;2023-08-24T09:55:20;95185.72;;;32.46;49.10
8059;BME280;4072;42.668;23.396;2023-08-24T09:57:52;95174.19;;;32.80;47.92
8059;BME280;4072;42.668;23.396;2023-08-24T10:00:22;95163.91;;;32.92;46.30
8059;BME280;4072;42.668;23.396;2023-08-24T10:02:52;95171.31;;;33.28;45.74
8059;BME280;4072;42.668;23.396;2023-08-24T10:05:24;95165.09;;;33.49;44.24
8059;BME280;4072;42.668;23.396;2023-08-24T10:07:56;95172.16;;;33.90;43.48
8059;BME280;4072;42.668;23.396;2023-08-24T10:10:25;95171.13;;;34.16;43.57
8059;BME280;4072;42.668;23.396;2023-08-24T10:12:59;95139.38;;;33.83;43.14
8059;BME280;4072;42.668;23.396;2023-08-24T10:15:29;95163.34;;;34.26;41.62
8059;BME280;4072;42.668;23.396;2023-08-24T10:17:58;95161.09;;;34.13;40.63
8059;BME280;4072;42.668;23.396;2023-08-24T10:20:34;95160.31;;;33.91;40.98
8059;BME280;4072;42.668;23.396;2023-08-24T10:23:03;95153.69;;;33.87;41.17
8059;BME280;4072;42.668;23.396;2023-08-24T10:25:32;95159.25;;;33.66;42.01
8059;BME280;4072;42.668;23.396;2023-08-24T10:28:03;95161.38;;;33.56;42.25
8059;BME280;4072;42.668;23.396;2023-08-24T10:30:34;95150.44;;;33.60;42.92
8059;BME280;4072;42.668;23.396;2023-08-24T10:33:04;95147.63;;;33.60;41.25
8059;BME280;4072;42.668;23.396;2023-08-24T10:35:36;95142.28;;;33.24;41.62
8059;BME280;4072;42.668;23.396;2023-08-24T10:38:05;95141.47;;;32.92;41.60
8059;BME280;4072;42.668;23.396;2023-08-24T10:40:35;95152.09;;;32.84;42.19
8059;BME280;4072;42.668;23.396;2023-08-24T10:43:04;95149.09;;;33.01;42.12
8059;BME280;4072;42.668;23.396;2023-08-24T10:45:56;95151.19;;;32.91;42.25
8059;BME280;4072;42.668;23.396;2023-08-24T10:48:26;95149.88;;;32.64;42.60
8059;BME280;4072;42.668;23.396;2023-08-24T10:51:23;95145.28;;;32.30;44.52
8059;BME280;4072;42.668;23.396;2023-08-24T10:53:55;95069.53;;;31.90;45.28
8059;BME280;4072;42.668;23.396;2023-08-24T10:56:30;95127.91;;;32.41;45.91
8059;BME280;4072;42.668;23.396;2023-08-24T10:59:13;95143.56;;;32.44;47.24
8059;BME280;4072;42.668;23.396;2023-08-24T11:01:42;95112.28;;;32.19;49.12
8059;BME280;4072;42.668;23.396;2023-08-24T11:04:12;95139.81;;;32.04;53.42
8059;BME280;4072;42.668;23.396;2023-08-24T11:06:55;95131.09;;;31.90;53.69
8059;BME280;4072;42.668;23.396;2023-08-24T11:09:25;95136.97;;;31.85;53.73
8059;BME280;4072;42.668;23.396;2023-08-24T11:11:59;95130.88;;;31.69;54.87
8059;BME280;4072;42.668;23.396;2023-08-24T11:14:28;95139.06;;;31.48;54.49
8059;BME280;4072;42.668;23.396;2023-08-24T11:17:17;95132.22;;;31.32;55.48
8059;BME280;4072;42.668;23.396;2023-08-24T11:19:48;95113.16;;;31.21;56.66
8059;BME280;4072;42.668;23.396;2023-08-24T11:22:20;95088.41;;;31.08;57.46
8059;BME280;4072;42.668;23.396;2023-08-24T11:24:52;95123.41;;;31.09;59.85
8059;BME280;4072;42.668;23.396;2023-08-24T11:27:22;95127.41;;;30.89;60.23
8059;BME280;4072;42.668;23.396;2023-08-24T11:29:58;95121.88;;;30.72;60.37
8059;BME280;4072;42.668;23.396;2023-08-24T11:32:27;95121.78;;;30.62;61.72
8059;BME280;4072;42.668;23.396;2023-08-24T11:34:57;95129.78;;;30.49;62.99
8059;BME280;4072;42.668;23.396;2023-08-24T11:37:27;95125.59;;;30.40;64.45
8059;BME280;4072;42.668;23.396;2023-08-24T11:39:55;95134.72;;;30.24;67.90
8059;BME280;4072;42.668;23.396;2023-08-24T11:42:23;95136.97;;;30.01;68.77
8059;BME280;4072;42.668;23.396;2023-08-24T11:44:51;95137.97;;;29.96;70.66
8059;BME280;4072;42.668;23.396;2023-08-24T11:47:21;95113.97;;;29.76;72.76
8059;BME280;4072;42.668;23.396;2023-08-24T11:49:52;95119.63;;;29.85;73.38
8059;BME280;4072;42.668;23.396;2023-08-24T11:52:21;95124.97;;;29.74;74.19
8059;BME280;4072;42.668;23.396;2023-08-24T11:54:52;95117.91;;;29.73;74.42
8059;BME280;4072;42.668;23.396;2023-08-24T11:57:21;95117.91;;;29.73;74.43
8059;BME280;4072;42.668;23.396;2023-08-24T11:59:49;95117.44;;;29.84;74.03
8059;BME280;4072;42.668;23.396;2023-08-24T12:02:17;95109.28;;;29.78;72.85
8059;BME280;4072;42.668;23.396;2023-08-24T12:04:48;95033.66;;;29.16;71.72
8059;BME280;4072;42.668;23.396;2023-08-24T12:07:17;95107.47;;;29.32;72.84
8059;BME280;4072;42.668;23.396;2023-08-24T12:09:46;95058.06;;;28.76;74.75
8059;BME280;4072;42.668;23.396;2023-08-24T12:12:17;95083.66;;;28.82;76.51
8059;BME280;4072;42.668;23.396;2023-08-24T12:14:46;95075.38;;;28.67;73.59
8059;BME280;4072;42.668;23.396;2023-08-24T12:17:16;95077.44;;;28.66;73.51
8059;BME280;4072;42.668;23.396;2023-08-24T12:19:45;95072.25;;;28.63;74.33
8059;BME280;4072;42.668;23.396;2023-08-24T12:22:14;95013.06;;;28.23;76.27
8059;BME280;4072;42.668;23.396;2023-08-24T12:24:44;95078.06;;;28.82;68.95
8059;BME280;4072;42.668;23.396;2023-08-24T12:27:22;95079.50;;;28.90;69.34
8059;BME280;4072;42.668;23.396;2023-08-24T12:29:51;95053.50;;;28.88;70.17
8059;BME280;4072;42.668;23.396;2023-08-24T12:32:20;95055.69;;;29.21;70.34
8059;BME280;4072;42.668;23.396;2023-08-24T12:34:50;95103.72;;;29.78;69.52
8059;BME280;4072;42.668;23.396;2023-08-24T12:37:20;95078.03;;;29.80;69.26
8059;BME280;4072;42.668;23.396;2023-08-24T12:39:48;95114.03;;;30.27;67.81
8059;BME280;4072;42.668;23.396;2023-08-24T12:42:16;95115.31;;;30.43;67.17
8059;BME280;4072;42.668;23.396;2023-08-24T12:44:46;95114.72;;;30.61;66.41
8059;BME280;4072;42.668;23.396;2023-08-24T12:47:14;95120.19;;;30.86;65.13
8059;BME280;4072;42.668;23.396;2023-08-24T12:49:42;95115.38;;;30.96;64.75
8059;BME280;4072;42.668;23.396;2023-08-24T12:52:10;95122.56;;;30.90;62.85
8059;BME280;4072;42.668;23.396;2023-08-24T12:54:38;95140.56;;;30.79;62.89
8059;BME280;4072;42.668;23.396;2023-08-24T12:57:07;95109.53;;;30.58;61.50
8059;BME280;4072;42.668;23.396;2023-08-24T12:59:35;95134.22;;;30.52;62.70
8059;BME280;4072;42.668;23.396;2023-08-24T13:02:05;95135.53;;;30.34;63.54
8059;BME280;4072;42.668;23.396;2023-08-24T13:04:33;95139.38;;;30.38;61.04
8059;BME280;4072;42.668;23.396;2023-08-24T13:07:02;95134.22;;;30.35;61.47
8059;BME280;4072;42.668;23.396;2023-08-24T13:09:31;95133.56;;;30.27;62.02
8059;BME280;4072;42.668;23.396;2023-08-24T13:11:59;95135.63;;;30.26;62.23
8059;BME280;4072;42.668;23.396;2023-08-24T13:14:27;95127.00;;;30.32;62.71
8059;BME280;4072;42.668;23.396;2023-08-24T13:16:55;95139.94;;;30.54;60.55
8059;BME280;4072;42.668;23.396;2023-08-24T13:19:25;95141.59;;;30.40;59.99